Time;durP1;ratioP1;P1;durP2;ratioP2;P2;SDS_P1;SDS_P2;PMS_P1;PMS_P2;Temp;Humidity;BMP_temperature;BMP_pressure;BME280_temperature;BME280_humidity;BME280_pressure;Samples;Min_cycle;Max_cycle;Signal;HPM_P1;HPM_P2
2022/01/16 00:04:43;;;;;;;186.65;42.47;;;;;;;-0.96;100.00;102368.00;5351299;27;20032;-87
2022/01/16 00:07:15;;;;;;;204.32;42.22;;;;;;;-0.81;100.00;102366.78;5351045;27;20396;-87
2022/01/16 00:09:54;;;;;;;192.80;44.65;;;;;;;-0.76;100.00;102373.66;5349317;27;20031;-88
2022/01/16 00:12:25;;;;;;;190.55;41.40;;;;;;;-0.92;100.00;102356.53;5340293;27;20111;-88
2022/01/16 00:14:57;;;;;;;207.75;43.55;;;;;;;-0.91;100.00;102375.72;5347662;27;20098;-87
2022/01/16 00:17:34;;;;;;;162.63;42.95;;;;;;;-0.91;100.00;102368.75;5351013;27;20019;-87
2022/01/16 00:20:06;;;;;;;157.60;41.28;;;;;;;-0.92;100.00;102381.88;5350161;27;20019;-88
2022/01/16 00:22:39;;;;;;;161.70;44.10;;;;;;;-0.88;100.00;102380.91;5350650;27;20042;-87
2022/01/16 00:25:14;;;;;;;141.70;41.08;;;;;;;-1.06;100.00;102340.25;5346540;27;20031;-88
2022/01/16 00:27:46;;;;;;;149.40;44.55;;;;;;;-1.05;100.00;102336.72;5349069;27;20023;-87
2022/01/16 00:30:18;;;;;;;143.52;43.83;;;;;;;-0.87;100.00;102346.84;5330918;27;20028;-86
2022/01/16 00:32:50;;;;;;;160.55;42.92;;;;;;;-0.92;100.00;102327.72;5346940;27;20019;-87
2022/01/16 00:35:21;;;;;;;139.68;42.72;;;;;;;-0.95;100.00;102335.63;5350626;27;20111;-87
2022/01/16 00:37:52;;;;;;;156.65;46.63;;;;;;;-0.83;100.00;102361.59;5350432;27;20079;-87
2022/01/16 00:40:24;;;;;;;150.50;47.65;;;;;;;-0.99;100.00;102318.28;5355969;27;20061;-87
2022/01/16 00:42:57;;;;;;;130.65;46.63;;;;;;;-0.80;100.00;102350.19;5347744;27;20146;-87
2022/01/16 00:45:34;;;;;;;148.55;45.85;;;;;;;-0.81;100.00;102315.28;5359091;27;20059;-88
2022/01/16 00:48:06;;;;;;;132.88;42.78;;;;;;;-0.73;100.00;102324.72;5349605;27;20126;-87
2022/01/16 00:50:38;;;;;;;153.02;46.80;;;;;;;-0.50;100.00;102343.41;5348242;27;20046;-88
2022/01/16 00:53:09;;;;;;;173.63;50.38;;;;;;;-0.42;100.00;102353.72;5350306;27;20054;-88
2022/01/16 00:55:41;;;;;;;169.57;49.70;;;;;;;-0.63;100.00;102342.84;5348094;27;20130;-87
2022/01/16 00:58:12;;;;;;;172.75;49.50;;;;;;;-0.35;100.00;102328.22;5349238;27;20042;-87
2022/01/16 01:00:44;;;;;;;159.63;47.40;;;;;;;-0.47;100.00;102298.78;5348840;27;20028;-87
2022/01/16 01:03:16;;;;;;;163.38;49.33;;;;;;;-0.31;100.00;102309.78;5348654;27;20204;-87
2022/01/16 01:05:48;;;;;;;165.30;52.22;;;;;;;-0.36;100.00;102314.25;5350072;27;20130;-87
2022/01/16 01:08:19;;;;;;;171.05;54.42;;;;;;;-0.30;100.00;102306.25;5356024;27;20024;-87
2022/01/16 01:10:53;;;;;;;174.75;51.70;;;;;;;-0.49;100.00;102292.72;5350976;27;20080;-87
2022/01/16 01:16:04;;;;;;;156.02;47.28;;;;;;;-0.36;100.00;102339.63;5348626;27;20036;-88
2022/01/16 01:18:35;;;;;;;149.98;46.03;;;;;;;-0.38;100.00;102324.78;5347021;27;20023;-87
2022/01/16 01:21:16;;;;;;;150.70;48.75;;;;;;;-0.60;100.00;102284.22;5348801;27;20028;-87
2022/01/16 01:23:48;;;;;;;138.93;46.10;;;;;;;-0.37;100.00;102312.53;5346157;27;20027;-87
2022/01/16 01:26:24;;;;;;;136.20;44.03;;;;;;;-0.42;100.00;102317.00;5348340;27;20034;-87
2022/01/16 01:28:58;;;;;;;137.00;44.25;;;;;;;-0.41;100.00;102332.72;5345623;27;20039;-87
2022/01/16 01:31:30;;;;;;;152.68;46.33;;;;;;;-0.58;100.00;102314.75;5349063;27;20499;-87
2022/01/16 01:34:02;;;;;;;155.32;45.47;;;;;;;-0.42;100.00;102328.38;5352466;27;20039;-86
2022/01/16 01:36:34;;;;;;;160.88;47.03;;;;;;;-0.43;100.00;102278.59;5347626;27;20027;-87
2022/01/16 01:39:05;;;;;;;190.25;49.42;;;;;;;-0.38;100.00;102248.75;5348271;27;20186;-88
2022/01/16 01:41:36;;;;;;;178.60;48.83;;;;;;;-0.28;100.00;102225.78;5349302;27;20374;-87
2022/01/16 01:52:38;;;;;;;235.50;51.90;;;;;;;-0.34;100.00;102283.63;5348473;27;20387;-87
2022/01/16 01:55:11;;;;;;;259.50;53.28;;;;;;;-0.21;100.00;102287.69;5348218;27;20081;-87
2022/01/16 01:57:42;;;;;;;223.20;50.63;;;;;;;-0.34;100.00;102291.47;5347602;27;20019;-87
2022/01/16 02:00:17;;;;;;;261.35;60.03;;;;;;;-0.45;100.00;102310.09;5348596;27;20438;-87
2022/01/16 02:05:33;;;;;;;238.55;49.83;;;;;;;-0.41;100.00;102318.75;5347254;27;20039;-87
2022/01/16 02:08:05;;;;;;;229.23;48.38;;;;;;;-0.52;100.00;102329.47;5348155;27;20028;-87
2022/01/16 02:10:38;;;;;;;222.20;49.03;;;;;;;-0.43;100.00;102326.66;5346576;27;20042;-87
2022/01/16 02:13:20;;;;;;;279.83;54.38;;;;;;;-0.49;100.00;102320.66;5346374;27;20023;-87
2022/01/16 02:35:44;;;;;;;231.65;52.15;;;;;;;-0.67;100.00;102362.13;5354189;27;20023;-87
2022/01/16 02:38:16;;;;;;;282.50;58.93;;;;;;;-0.59;100.00;102360.22;5353243;27;20374;-87
2022/01/16 02:40:54;;;;;;;267.67;54.20;;;;;;;-0.61;100.00;102354.13;5350635;27;20028;-87
2022/01/16 02:43:31;;;;;;;233.70;53.55;;;;;;;-0.69;100.00;102337.72;5348688;27;20022;-87
2022/01/16 02:48:54;;;;;;;265.70;58.03;;;;;;;-0.78;100.00;102312.56;5346697;27;20104;-87
2022/01/16 02:51:27;;;;;;;273.20;54.80;;;;;;;-0.54;100.00;102331.28;5346535;27;20026;-87
2022/01/16 02:53:59;;;;;;;295.35;62.30;;;;;;;-0.66;100.00;102321.06;5342935;27;20514;-87
2022/01/16 02:56:35;;;;;;;292.20;61.85;;;;;;;-0.63;100.00;102297.38;5344472;27;20020;-87
2022/01/16 02:59:10;;;;;;;253.70;62.37;;;;;;;-0.69;100.00;102302.78;5350721;27;20070;-87
2022/01/16 03:01:41;;;;;;;261.58;59.80;;;;;;;-0.53;100.00;102304.16;5348226;27;20044;-87
2022/01/16 03:04:13;;;;;;;275.60;63.95;;;;;;;-0.56;100.00;102301.63;5348794;27;20035;-87
2022/01/16 03:06:44;;;;;;;245.27;63.22;;;;;;;-0.43;100.00;102294.34;5349792;27;20023;-87
2022/01/16 03:09:17;;;;;;;258.77;66.05;;;;;;;-0.50;100.00;102290.13;5349393;27;20467;-87
2022/01/16 03:11:49;;;;;;;267.73;64.18;;;;;;;-0.57;100.00;102287.63;5349789;27;20073;-87
2022/01/16 03:14:21;;;;;;;237.40;64.28;;;;;;;-0.44;100.00;102288.22;5351434;27;20055;-87
2022/01/16 03:16:53;;;;;;;249.35;62.33;;;;;;;-0.35;100.00;102288.91;5347329;27;20427;-87
2022/01/16 03:22:15;;;;;;;239.18;66.38;;;;;;;-0.37;100.00;102278.44;5333548;27;20399;-87
2022/01/16 03:24:46;;;;;;;239.45;64.80;;;;;;;-0.34;100.00;102275.75;5345833;27;20050;-87
2022/01/16 03:27:19;;;;;;;244.02;64.18;;;;;;;-0.24;100.00;102276.41;5350049;27;20026;-87
2022/01/16 03:29:52;;;;;;;217.88;66.03;;;;;;;-0.39;100.00;102261.88;5349672;27;20024;-87
2022/01/16 03:32:24;;;;;;;207.88;62.53;;;;;;;-0.19;100.00;102271.91;5349648;27;20024;-87
2022/01/16 03:34:55;;;;;;;229.13;67.90;;;;;;;-0.24;100.00;102271.16;5351739;27;20176;-87
2022/01/16 03:37:27;;;;;;;212.13;64.68;;;;;;;-0.13;100.00;102268.25;5349251;27;20020;-88
2022/01/16 03:39:58;;;;;;;214.65;70.35;;;;;;;-0.10;100.00;102281.31;5351350;27;20174;-87
2022/01/16 03:42:32;;;;;;;227.57;69.40;;;;;;;-0.17;100.00;102269.25;5349494;27;20028;-87
2022/01/16 03:45:05;;;;;;;207.55;65.10;;;;;;;0.00;100.00;102269.69;5348114;27;20031;-87
2022/01/16 03:47:37;;;;;;;220.73;70.68;;;;;;;0.09;100.00;102268.56;5350842;27;20023;-87
2022/01/16 03:50:10;;;;;;;232.85;70.68;;;;;;;-0.04;100.00;102249.66;5351633;27;20077;-88
2022/01/16 03:52:41;;;;;;;207.32;64.32;;;;;;;0.01;100.00;102260.03;5350960;27;20067;-87
2022/01/16 03:55:13;;;;;;;207.32;66.68;;;;;;;-0.03;100.00;102241.75;5349904;27;20023;-87
2022/01/16 03:57:44;;;;;;;206.57;66.47;;;;;;;0.12;100.00;102264.13;5346391;27;20546;-87
2022/01/16 04:00:16;;;;;;;210.93;68.45;;;;;;;0.14;100.00;102271.91;5349710;27;20035;-87
2022/01/16 04:02:47;;;;;;;200.45;68.10;;;;;;;-0.01;100.00;102252.22;5350661;27;20031;-87
2022/01/16 04:05:19;;;;;;;198.27;64.30;;;;;;;0.20;100.00;102263.91;5349276;27;20467;-87
2022/01/16 04:07:50;;;;;;;194.75;70.03;;;;;;;0.25;100.00;102284.78;5350117;27;20522;-87
2022/01/16 04:10:22;;;;;;;190.35;66.43;;;;;;;0.31;100.00;102287.22;5348655;27;20031;-87
2022/01/16 04:12:53;;;;;;;190.23;67.72;;;;;;;0.38;100.00;102273.88;5349077;27;20081;-87
2022/01/16 04:15:31;;;;;;;184.63;68.75;;;;;;;0.45;100.00;102257.97;5348987;27;20028;-87
2022/01/16 04:18:05;;;;;;;177.10;65.60;;;;;;;0.30;100.00;102272.38;5351027;27;20568;-87
2022/01/16 04:20:37;;;;;;;171.05;67.45;;;;;;;0.30;100.00;102265.38;5348519;27;20467;-88
2022/01/16 04:23:10;;;;;;;174.70;65.82;;;;;;;0.26;100.00;102266.34;5349758;27;20054;-87
2022/01/16 04:25:41;;;;;;;167.82;67.68;;;;;;;-0.03;100.00;102228.63;5350379;27;20023;-87
2022/01/16 04:28:13;;;;;;;174.02;67.05;;;;;;;0.16;100.00;102268.38;5348367;27;20470;-87
2022/01/16 04:30:45;;;;;;;166.05;66.82;;;;;;;0.12;100.00;102261.50;5348678;27;20024;-87
2022/01/16 04:33:16;;;;;;;164.68;64.47;;;;;;;0.09;100.00;102252.81;5349526;27;20035;-87
2022/01/16 04:35:48;;;;;;;164.27;64.20;;;;;;;0.17;100.00;102263.97;5350575;27;20027;-87
2022/01/16 04:38:21;;;;;;;165.40;63.25;;;;;;;0.29;100.00;102271.53;5346547;27;20055;-87
2022/01/16 04:43:52;;;;;;;170.25;70.50;;;;;;;0.38;100.00;102268.63;5346902;27;20707;-87
2022/01/16 04:46:26;;;;;;;169.93;72.80;;;;;;;0.42;100.00;102269.44;5333394;27;20032;-87
2022/01/16 04:48:59;;;;;;;170.40;73.40;;;;;;;0.32;100.00;102249.59;5343948;27;20059;-86
2022/01/16 04:51:31;;;;;;;161.75;65.95;;;;;;;0.56;100.00;102263.78;5345448;27;20067;-87
2022/01/16 04:54:03;;;;;;;169.73;79.32;;;;;;;0.37;100.00;102253.81;5347937;27;20027;-87
2022/01/16 04:56:35;;;;;;;166.73;68.35;;;;;;;0.38;100.00;102247.63;5349891;27;20333;-86
2022/01/16 04:59:06;;;;;;;161.40;70.05;;;;;;;0.35;100.00;102253.00;5341823;27;20421;-87
2022/01/16 05:01:38;;;;;;;162.20;74.00;;;;;;;0.38;100.00;102255.50;5342633;27;20024;-86
2022/01/16 05:04:09;;;;;;;170.82;72.05;;;;;;;0.32;100.00;102253.06;5343036;27;20388;-87
2022/01/16 05:06:40;;;;;;;158.52;70.68;;;;;;;0.38;100.00;102252.88;5347362;27;20478;-86
2022/01/16 05:09:12;;;;;;;159.27;73.97;;;;;;;0.45;100.00;102242.22;5349839;27;20472;-87
2022/01/16 05:11:45;;;;;;;161.25;69.50;;;;;;;0.51;100.00;102236.81;5349761;27;20036;-87
2022/01/16 05:17:06;;;;;;;174.43;74.90;;;;;;;0.47;100.00;102243.03;5350511;27;20027;-87
2022/01/16 05:19:37;;;;;;;145.70;64.00;;;;;;;0.60;100.00;102236.56;5348850;27;20027;-87
2022/01/16 05:22:09;;;;;;;161.90;71.22;;;;;;;0.57;100.00;102247.97;5344112;27;20054;-87
2022/01/16 05:24:40;;;;;;;171.13;75.03;;;;;;;0.60;100.00;102246.16;5340397;27;20027;-87
2022/01/16 05:27:11;;;;;;;168.50;73.55;;;;;;;0.64;100.00;102232.91;5342458;27;20106;-87
2022/01/16 05:29:43;;;;;;;177.98;78.45;;;;;;;0.46;100.00;102223.81;5345804;27;20023;-88
2022/01/16 05:32:16;;;;;;;159.57;68.63;;;;;;;0.62;100.00;102242.63;5345619;27;20467;-87
2022/01/16 05:34:47;;;;;;;171.18;74.72;;;;;;;0.59;100.00;102247.09;5345321;27;20134;-86
2022/01/16 05:37:19;;;;;;;178.20;76.75;;;;;;;0.60;100.00;102252.31;5347923;27;20499;-88
2022/01/16 05:39:50;;;;;;;180.63;78.43;;;;;;;0.60;100.00;102244.44;5348101;27;20052;-87
2022/01/16 05:42:22;;;;;;;175.93;80.65;;;;;;;0.67;100.00;102250.38;5348142;27;20527;-88
2022/01/16 05:44:53;;;;;;;184.55;73.10;;;;;;;0.63;100.00;102246.97;5346541;27;20027;-88
2022/01/16 05:47:24;;;;;;;171.48;75.63;;;;;;;0.72;100.00;102257.22;5346610;27;20463;-87
2022/01/16 05:49:56;;;;;;;179.50;77.55;;;;;;;0.70;100.00;102263.41;5342379;27;20024;-88
2022/01/16 05:52:27;;;;;;;187.13;83.72;;;;;;;0.72;100.00;102272.97;5342914;27;20467;-87
2022/01/16 05:55:04;;;;;;;188.20;78.35;;;;;;;0.79;100.00;102270.16;5347313;27;20036;-87
2022/01/16 05:57:35;;;;;;;176.27;80.65;;;;;;;0.86;100.00;102263.81;5346341;27;20024;-88
2022/01/16 06:00:09;;;;;;;170.38;72.30;;;;;;;0.91;100.00;102261.91;5346218;27;20421;-87
2022/01/16 06:02:41;;;;;;;182.88;84.80;;;;;;;0.90;100.00;102268.09;5347486;27;20115;-87
2022/01/16 06:05:12;;;;;;;186.00;81.82;;;;;;;0.95;100.00;102260.94;5348345;27;20549;-87
2022/01/16 06:07:52;;;;;;;179.05;78.22;;;;;;;0.84;100.00;102252.50;5348687;27;20027;-87
2022/01/16 06:10:24;;;;;;;182.80;80.63;;;;;;;0.94;100.00;102256.56;5347432;27;20556;-86
2022/01/16 06:12:55;;;;;;;178.00;78.40;;;;;;;0.96;100.00;102251.28;5337904;27;20020;-87
2022/01/16 06:15:27;;;;;;;175.57;80.43;;;;;;;1.03;100.00;102261.53;5344862;27;20043;-87
2022/01/16 06:18:00;;;;;;;185.15;86.22;;;;;;;0.91;100.00;102239.16;5347154;27;20557;-86
2022/01/16 06:20:35;;;;;;;179.85;80.40;;;;;;;1.03;100.00;102250.19;5344439;27;20027;-87
2022/01/16 06:23:11;;;;;;;163.95;78.15;;;;;;;0.98;100.00;102239.78;5346921;27;20420;-86
2022/01/16 06:25:42;;;;;;;177.18;78.85;;;;;;;1.10;100.00;102252.56;5349022;27;20140;-86
2022/01/16 06:28:14;;;;;;;172.95;77.47;;;;;;;1.17;100.00;102270.78;5349513;27;20059;-86
2022/01/16 06:30:45;;;;;;;161.25;73.95;;;;;;;1.28;100.00;102268.69;5347417;27;20028;-86
2022/01/16 06:33:17;;;;;;;167.20;76.88;;;;;;;1.15;100.00;102241.91;5346164;27;20185;-87
2022/01/16 06:35:48;;;;;;;169.32;82.53;;;;;;;1.35;100.00;102275.50;5348872;27;20020;-87
2022/01/16 06:38:20;;;;;;;158.15;75.90;;;;;;;1.41;100.00;102274.44;5347544;27;20343;-87
2022/01/16 06:40:51;;;;;;;160.55;73.68;;;;;;;1.40;100.00;102276.19;5347572;27;20977;-87
2022/01/16 06:43:25;;;;;;;165.00;72.82;;;;;;;1.39;100.00;102274.47;5347262;27;20027;-87
2022/01/16 06:45:57;;;;;;;160.18;76.65;;;;;;;1.55;100.00;102300.28;5351001;27;20039;-87
2022/01/16 06:48:28;;;;;;;141.18;69.82;;;;;;;1.65;100.00;102294.69;5352608;27;20464;-87
2022/01/16 06:50:59;;;;;;;157.07;76.90;;;;;;;1.59;100.00;102296.66;5353589;27;20047;-87
2022/01/16 06:53:31;;;;;;;143.38;68.57;;;;;;;1.42;100.00;102258.63;5352210;27;20024;-87
2022/01/16 06:56:03;;;;;;;146.75;72.97;;;;;;;1.41;100.00;102249.00;5351695;27;20027;-87
2022/01/16 06:58:34;;;;;;;132.75;65.97;;;;;;;1.75;100.00;102302.28;5354722;27;20095;-87
2022/01/16 07:01:05;;;;;;;138.48;67.15;;;;;;;1.73;100.00;102309.38;5349577;27;20428;-88
2022/01/16 07:03:37;;;;;;;136.63;66.45;;;;;;;1.87;100.00;102307.13;5345690;27;20056;-87
2022/01/16 07:06:09;;;;;;;127.57;65.85;;;;;;;1.66;100.00;102279.75;5351666;27;20069;-87
2022/01/16 07:08:40;;;;;;;120.80;57.63;;;;;;;1.79;100.00;102304.78;5350655;27;20012;-88
2022/01/16 07:11:12;;;;;;;115.03;59.83;;;;;;;1.72;100.00;102287.47;5352625;27;20043;-87
2022/01/16 07:13:44;;;;;;;120.25;61.33;;;;;;;1.81;100.00;102315.25;5352113;27;20024;-87
2022/01/16 07:16:16;;;;;;;112.75;57.72;;;;;;;1.89;100.00;102323.72;5350881;27;20051;-87
2022/01/16 07:18:48;;;;;;;116.38;61.33;;;;;;;1.87;100.00;102329.03;5353033;27;20062;-87
2022/01/16 07:21:19;;;;;;;105.50;58.40;;;;;;;1.87;100.00;102351.88;5350786;27;20368;-88
2022/01/16 07:23:53;;;;;;;105.63;57.90;;;;;;;1.92;100.00;102349.97;5352255;27;20028;-88
2022/01/16 07:26:24;;;;;;;98.50;55.22;;;;;;;1.83;100.00;102332.69;5352044;27;20117;-87
2022/01/16 07:28:56;;;;;;;98.72;51.78;;;;;;;1.79;100.00;102338.09;5350828;27;20028;-87
2022/01/16 07:31:27;;;;;;;96.07;53.08;;;;;;;1.92;100.00;102357.84;5348955;27;20078;-88
2022/01/16 07:33:59;;;;;;;96.38;52.33;;;;;;;1.96;100.00;102353.34;5347652;27;20443;-88
2022/01/16 07:36:33;;;;;;;95.35;50.90;;;;;;;2.05;100.00;102374.09;5355514;27;20050;-87
2022/01/16 07:39:05;;;;;;;97.57;51.80;;;;;;;2.02;100.00;102374.22;5360360;27;20355;-87
2022/01/16 07:41:37;;;;;;;85.22;45.47;;;;;;;2.14;100.00;102375.56;5351369;27;20038;-87
2022/01/16 07:44:08;;;;;;;95.75;53.97;;;;;;;2.17;100.00;102360.53;5350726;27;20019;-87
2022/01/16 07:46:40;;;;;;;89.47;48.70;;;;;;;2.27;100.00;102364.56;5351575;27;20041;-88
2022/01/16 07:49:14;;;;;;;92.20;47.47;;;;;;;2.29;100.00;102377.69;5352147;27;20524;-88
2022/01/16 07:51:45;;;;;;;93.60;50.72;;;;;;;1.99;100.00;102329.56;5350256;27;20051;-87
2022/01/16 07:54:18;;;;;;;92.35;49.53;;;;;;;2.32;100.00;102380.25;5352731;27;20069;-87
2022/01/16 07:56:52;;;;;;;89.30;49.45;;;;;;;2.19;100.00;102364.00;5343398;27;20392;-87
2022/01/16 07:59:23;;;;;;;87.68;50.03;;;;;;;2.46;100.00;102395.56;5347252;27;20496;-87
2022/01/16 08:01:55;;;;;;;90.72;51.10;;;;;;;2.22;100.00;102349.84;5335679;27;20047;-88
2022/01/16 08:04:27;;;;;;;86.90;47.70;;;;;;;2.46;100.00;102393.78;5350583;27;20024;-87
2022/01/16 08:07:03;;;;;;;89.95;48.85;;;;;;;2.42;100.00;102405.34;5349542;27;20118;-87
2022/01/16 08:09:35;;;;;;;88.30;47.03;;;;;;;2.35;100.00;102381.88;5348969;27;20557;-87
2022/01/16 08:12:08;;;;;;;87.75;54.10;;;;;;;2.32;100.00;102382.88;5349492;27;20028;-87
2022/01/16 08:14:39;;;;;;;81.50;46.35;;;;;;;2.49;100.00;102381.44;5348680;27;20037;-88
2022/01/16 08:17:11;;;;;;;85.35;47.80;;;;;;;2.46;100.00;102390.31;5347406;27;20027;-87
2022/01/16 08:19:42;;;;;;;91.95;54.63;;;;;;;2.44;100.00;102381.59;5345699;27;20032;-87
2022/01/16 08:22:13;;;;;;;87.35;46.38;;;;;;;2.49;100.00;102377.03;5348480;27;20032;-87
2022/01/16 08:24:47;;;;;;;86.97;46.13;;;;;;;2.44;100.00;102363.16;5349320;27;20015;-87
2022/01/16 08:27:18;;;;;;;76.68;43.15;;;;;;;2.28;100.00;102328.59;5350782;27;20024;-87
2022/01/16 08:29:50;;;;;;;85.70;44.58;;;;;;;2.37;100.00;102351.97;5348547;27;20020;-88
2022/01/16 08:32:24;;;;;;;87.40;47.80;;;;;;;2.54;100.00;102380.38;5349433;27;20069;-87
2022/01/16 08:34:55;;;;;;;90.75;46.65;;;;;;;2.45;100.00;102359.59;5348306;27;20035;-87
2022/01/16 08:37:27;;;;;;;86.28;47.95;;;;;;;2.52;100.00;102369.00;5348288;27;20031;-87
2022/01/16 08:39:58;;;;;;;87.15;47.42;;;;;;;2.52;100.00;102362.88;5347664;27;20072;-87
2022/01/16 08:42:30;;;;;;;79.43;44.42;;;;;;;2.73;100.00;102372.66;5348101;27;20019;-87
2022/01/16 08:45:02;;;;;;;93.88;46.78;;;;;;;2.72;100.00;102383.25;5348629;27;20039;-87
2022/01/16 08:47:34;;;;;;;99.05;48.88;;;;;;;2.77;100.00;102365.50;5346956;27;20019;-87
2022/01/16 08:50:08;;;;;;;101.28;51.63;;;;;;;2.68;100.00;102350.03;5349411;27;20034;-87
2022/01/16 08:52:40;;;;;;;99.88;51.30;;;;;;;2.86;100.00;102364.31;5346712;27;20049;-87
2022/01/16 08:55:12;;;;;;;93.85;47.65;;;;;;;2.91;100.00;102391.38;5346969;27;20046;-87
2022/01/16 08:57:43;;;;;;;98.15;50.30;;;;;;;3.10;100.00;102402.97;5347143;27;20526;-87
2022/01/16 09:00:15;;;;;;;94.85;48.70;;;;;;;3.13;100.00;102415.19;5347182;27;20038;-85
2022/01/16 09:02:46;;;;;;;91.75;47.40;;;;;;;3.07;100.00;102408.38;5345707;27;20428;-85
2022/01/16 09:05:18;;;;;;;90.80;47.00;;;;;;;2.90;100.00;102376.50;5348300;27;20031;-85
2022/01/16 09:07:49;;;;;;;86.13;48.08;;;;;;;2.99;100.00;102406.00;5342822;27;20027;-86
2022/01/16 09:10:21;;;;;;;87.65;47.67;;;;;;;2.89;100.00;102385.31;5341452;27;20027;-86
2022/01/16 09:12:53;;;;;;;95.32;45.33;;;;;;;2.98;100.00;102398.16;5347369;27;20114;-85
2022/01/16 09:15:25;;;;;;;94.80;46.33;;;;;;;3.05;100.00;102402.31;5348725;27;20066;-86
2022/01/16 09:17:56;;;;;;;88.30;48.78;;;;;;;3.11;100.00;102422.31;5349412;27;20447;-85
2022/01/16 09:20:27;;;;;;;88.75;47.05;;;;;;;2.94;100.00;102396.56;5346093;27;20389;-85
2022/01/16 09:23:00;;;;;;;93.72;49.63;;;;;;;3.03;100.00;102399.72;5349110;27;20055;-85
2022/01/16 09:25:31;;;;;;;88.70;47.75;;;;;;;3.20;100.00;102435.16;5349295;27;20429;-85
2022/01/16 09:28:04;;;;;;;93.97;48.28;;;;;;;3.10;100.00;102410.03;5347610;27;20031;-84
2022/01/16 09:30:36;;;;;;;100.75;51.88;;;;;;;3.19;100.00;102423.75;5346296;27;20027;-85
2022/01/16 09:33:07;;;;;;;102.50;50.40;;;;;;;3.18;100.00;102429.09;5348407;27;20039;-84
2022/01/16 09:35:38;;;;;;;99.57;49.00;;;;;;;3.27;100.00;102443.72;5347041;27;20439;-85
2022/01/16 09:38:10;;;;;;;100.13;50.80;;;;;;;3.35;100.00;102446.94;5345519;27;20085;-85
2022/01/16 09:40:44;;;;;;;92.68;45.72;;;;;;;3.28;100.00;102442.78;5345754;27;20024;-85
2022/01/16 09:43:16;;;;;;;117.00;59.05;;;;;;;3.27;100.00;102449.84;5336312;27;20055;-85
2022/01/16 09:45:49;;;;;;;109.85;52.15;;;;;;;3.32;100.00;102452.31;5337419;27;20817;-85
2022/01/16 09:48:21;;;;;;;120.75;58.22;;;;;;;3.29;100.00;102457.69;5346308;27;20038;-85
2022/01/16 09:50:52;;;;;;;115.15;53.70;;;;;;;3.27;100.00;102449.84;5347279;27;20032;-85
2022/01/16 09:53:24;;;;;;;117.22;55.17;;;;;;;3.32;100.00;102453.16;5348265;27;20126;-85
2022/01/16 09:55:55;;;;;;;121.32;55.42;;;;;;;3.40;100.00;102460.78;5347914;27;20118;-86
2022/01/16 09:58:27;;;;;;;115.43;55.13;;;;;;;3.40;100.00;102461.69;5343966;27;20030;-87
2022/01/16 10:00:58;;;;;;;119.80;53.95;;;;;;;3.41;100.00;102458.09;5349543;27;20326;-87
2022/01/16 10:03:38;;;;;;;121.45;53.03;;;;;;;3.53;100.00;102464.72;5347166;27;20048;-88
2022/01/16 10:06:15;;;;;;;120.63;54.85;;;;;;;3.54;100.00;102474.34;5347693;27;20091;-87
2022/01/16 10:08:52;;;;;;;120.63;59.92;;;;;;;3.51;100.00;102484.16;5348176;27;20475;-87
2022/01/16 10:11:24;;;;;;;;;;;;;;;3.77;100.00;102496.41;5344498;27;20086;-88
2022/01/16 10:14:46;;;;;;;120.65;50.30;;;;;;;3.72;100.00;102491.28;5343897;27;19955;-87
2022/01/16 10:16:49;;;;;;;118.60;52.33;;;;;;;3.73;100.00;102486.84;5334133;27;20131;-88
2022/01/16 10:19:22;;;;;;;119.80;50.85;;;;;;;3.72;100.00;102487.78;5343410;27;20426;-89
2022/01/16 10:22:00;;;;;;;118.97;50.00;;;;;;;3.84;100.00;102507.56;5346486;27;20747;-87
2022/01/16 10:24:34;;;;;;;123.13;51.90;;;;;;;3.81;100.00;102494.50;5343577;27;20080;-85
2022/01/16 10:27:08;;;;;;;111.60;51.63;;;;;;;3.87;100.00;102500.38;5345725;27;20031;-87
2022/01/16 10:29:42;;;;;;;114.38;48.40;;;;;;;3.95;100.00;102510.66;5345251;27;20027;-86
2022/01/16 10:32:27;;;;;;;117.78;56.22;;;;;;;3.87;100.00;102504.81;5341441;27;20043;-85
2022/01/16 10:35:09;;;;;;;111.63;49.65;;;;;;;3.95;100.00;102498.31;5342722;27;20034;-84
2022/01/16 10:37:52;;;;;;;110.55;48.90;;;;;;;4.01;100.00;102491.94;5345065;27;20030;-84
2022/01/16 10:40:38;;;;;;;107.07;52.25;;;;;;;3.97;100.00;102506.19;5342063;27;20020;-84
2022/01/16 10:43:13;;;;;;;100.82;42.50;;;;;;;4.09;100.00;102511.00;5344816;27;20074;-86
2022/01/16 10:45:51;;;;;;;111.80;46.53;;;;;;;4.06;100.00;102508.47;5340178;27;20122;-86
2022/01/16 10:48:24;;;;;;;102.03;50.28;;;;;;;4.10;100.00;102510.06;5345211;27;20024;-85
2022/01/16 10:50:56;;;;;;;108.55;50.05;;;;;;;4.01;100.00;102497.22;5346017;27;20153;-86
2022/01/16 10:53:30;;;;;;;93.78;42.70;;;;;;;4.21;100.00;102501.72;5346068;27;20032;-85
2022/01/16 10:56:03;;;;;;;89.28;45.53;;;;;;;4.16;100.00;102479.91;5347620;27;20028;-87
2022/01/16 10:58:34;;;;;;;93.45;41.60;;;;;;;4.41;100.00;102502.72;5346655;27;20479;-85
2022/01/16 11:01:13;;;;;;;93.68;46.75;;;;;;;4.21;100.00;102496.44;5347284;27;20117;-86
2022/01/16 11:03:46;;;;;;;89.20;42.72;;;;;;;4.26;100.00;102505.06;5345256;27;20047;-86
2022/01/16 11:06:21;;;;;;;95.88;43.35;;;;;;;4.41;100.00;102513.28;5346296;27;20038;-86
2022/01/16 11:08:56;;;;;;;94.00;43.10;;;;;;;4.20;100.00;102488.59;5346169;27;20040;-86
2022/01/16 11:11:28;;;;;;;94.05;48.78;;;;;;;4.18;100.00;102490.44;5345914;27;20482;-87
2022/01/16 11:14:04;;;;;;;92.22;42.50;;;;;;;4.33;100.00;102517.09;5345926;27;20325;-85
2022/01/16 11:16:35;;;;;;;98.30;45.03;;;;;;;4.25;100.00;102526.25;5345756;27;20096;-86
2022/01/16 11:19:09;;;;;;;99.18;47.85;;;;;;;4.19;100.00;102518.53;5347987;27;20024;-86
2022/01/16 11:21:43;;;;;;;99.80;43.00;;;;;;;4.16;100.00;102522.19;5347232;27;20024;-86
2022/01/16 11:24:32;;;;;;;92.28;43.72;;;;;;;3.95;100.00;102478.97;5343154;27;20046;-85
2022/01/16 11:27:04;;;;;;;97.38;45.17;;;;;;;3.90;100.00;102481.78;5337582;27;20428;-85
2022/01/16 11:29:35;;;;;;;101.22;47.83;;;;;;;4.18;100.00;102525.63;5340776;27;20023;-86
2022/01/16 11:32:08;;;;;;;98.95;44.75;;;;;;;4.18;100.00;102503.63;5352885;27;20036;-86
2022/01/16 11:34:41;;;;;;;94.53;45.25;;;;;;;4.12;100.00;102502.94;5353273;27;20020;-86
2022/01/16 11:37:13;;;;;;;95.85;45.92;;;;;;;4.14;100.00;102495.81;5352933;27;20033;-86
2022/01/16 11:39:44;;;;;;;84.60;43.33;;;;;;;4.22;100.00;102498.16;5355629;27;20020;-86
2022/01/16 11:42:22;;;;;;;99.82;44.85;;;;;;;4.09;100.00;102496.94;5359138;27;20098;-85
2022/01/16 11:44:54;;;;;;;96.72;44.50;;;;;;;4.10;100.00;102510.06;5362312;27;20066;-85
2022/01/16 11:47:25;;;;;;;97.68;45.40;;;;;;;4.11;100.00;102508.28;5363206;27;20015;-86
2022/01/16 11:50:07;;;;;;;95.03;45.85;;;;;;;4.13;100.00;102502.00;5361723;27;20102;-86
2022/01/16 11:52:41;;;;;;;101.88;45.75;;;;;;;3.93;100.00;102483.47;5353614;27;20076;-86
2022/01/16 11:55:12;;;;;;;98.93;45.15;;;;;;;4.05;100.00;102490.91;5349606;27;20122;-86
2022/01/16 11:57:56;;;;;;;104.28;51.13;;;;;;;4.13;100.00;102517.00;5350346;27;20118;-86
2022/01/16 12:00:45;;;;;;;95.30;46.28;;;;;;;4.12;100.00;102513.50;5346351;27;20357;-88
2022/01/16 12:03:35;;;;;;;91.97;44.65;;;;;;;4.18;100.00;102507.13;5356706;27;20798;-87
2022/01/16 12:06:31;;;;;;;83.68;40.72;;;;;;;4.16;100.00;102511.63;5357753;27;20028;-87
2022/01/16 12:09:04;;;;;;;85.28;41.67;;;;;;;4.05;100.00;102496.19;5352679;27;20043;-87
2022/01/16 12:11:37;;;;;;;88.38;42.40;;;;;;;4.07;100.00;102504.91;5349336;27;20057;-86
2022/01/16 12:14:08;;;;;;;87.80;42.55;;;;;;;4.15;100.00;102502.84;5349470;27;20431;-87
2022/01/16 12:16:43;;;;;;;81.90;40.13;;;;;;;4.24;100.00;102506.88;5351210;27;20035;-87